Flight Track Log - Related Links

Times and Time Zones

All times are in EDT time to prevent confusion due to time zone crossing. See the UAL4625 flight status page for this flight to view local times or setup timezone preferences in your user account.

Time Position Orientation Groundspeed Altitude Reporting Facility
EDT Latitude Longitude Course Direction KTS MPH feet Rate Location/Type
Fri 12:36:38 PM 40.7333 -74.1333 217° Southwest 194 223 2,400  Level New York TRACON
Fri 12:37:38 PM 40.7833 -74.1667 333° Northwest 250 288 4,400 2,050 Climbing New York TRACON
Fri 12:38:38 PM 40.7667 -74.2667 258° West 284 327 6,500 1,899 Climbing New York TRACON
Fri 12:39:00 PM 40.5303 -74.6168 250° West  Level FlightAware Approximate
Fri 12:40:00 PM 40.4937 -74.7358 246° West  Level FlightAware Approximate
Fri 12:40:57 PM 40.6597 -74.4725 236° Southwest 319 367 10,700  Level New York Center
Fri 12:41:00 PM 40.4544 -74.8535 246° West  Level FlightAware Approximate
Fri 12:41:58 PM 40.6150 -74.5711 239° Southwest 342 394 11,600  Level New York Center
Fri 12:42:00 PM 40.4143 -74.9690 217° Southwest  Level FlightAware Approximate
Fri 12:42:58 PM 40.5547 -74.6989 238° Southwest 365 420 12,800  Level New York Center
Fri 12:43:59 PM 40.4942 -74.8183 236° Southwest 390 449 13,900 1,140 Climbing New York Center
Fri 12:44:59 PM 40.4447 -74.9272 239° Southwest 400 460 15,100 1,881 Climbing New York Center
Fri 12:45:57 PM 40.3717 -75.0425 230° Southwest 385 443 17,600 2,067 Climbing New York Center
Fri 12:46:58 PM 40.3036 -75.1392 227° Southwest 374 430 19,200 1,650 Climbing New York Center
Fri 12:47:57 PM 40.2375 -75.2328 227° Southwest 369 425 20,900 1,412 Climbing New York Center
Fri 12:48:57 PM 40.1650 -75.3314 226° Southwest 364 419 22,000 1,041 Climbing New York Center
Fri 12:49:58 PM 40.0942 -75.4353 228° Southwest 375 432 23,000 1,339 Climbing New York Center
Fri 12:50:58 PM 40.0172 -75.5386 226° Southwest 386 444 24,700 1,736 Climbing New York Center
Fri 12:51:59 PM 39.9464 -75.6394 228° Southwest 386 444 26,500 1,686 Climbing New York Center
Fri 12:52:59 PM 39.8817 -75.7375 229° Southwest 378 435 28,100 1,271 Climbing New York Center
Fri 12:53:57 PM 39.8147 -75.8411 230° Southwest 378 435 29,000 864 Climbing New York Center
Fri 12:54:57 PM 39.7478 -75.9469 231° Southwest 373 429 29,800 793 Climbing New York Center
Fri 12:55:58 PM 39.6869 -76.0478 232° Southwest 389 448 30,600 800 Climbing New York Center
Fri 12:57:12 PM 39.5997 -76.1842 230° Southwest 400 460 31,600 812 Climbing Washington Center
Fri 12:58:11 PM 39.5261 -76.2964 230° Southwest 405 466 32,400 807 Climbing Washington Center
Fri 12:59:11 PM 39.4483 -76.4139 229° Southwest 415 478 33,200 793 Climbing Washington Center
Fri 01:00:12 PM 39.3703 -76.5311 229° Southwest 427 491 34,000 738 Climbing Washington Center
Fri 01:01:13 PM 39.2964 -76.6483 231° Southwest 432 497 34,700 756 Climbing Washington Center
Fri 01:02:11 PM 39.2225 -76.7625 230° Southwest 426 490 35,500 661 Climbing Washington Center
Fri 01:03:11 PM 39.1483 -76.8789 231° Southwest 426 490 36,000 250 Climbing Washington Center
Fri 01:04:11 PM 39.0719 -76.9981 230° Southwest 426 490 36,000  Level Washington Center
Fri 01:05:12 PM 38.9894 -77.0978 223° Southwest 421 484 36,000  Level Washington Center
Fri 01:06:12 PM 38.9047 -77.1922 221° Southwest 416 479 36,000  Level Washington Center
Fri 01:07:11 PM 38.8181 -77.2861 220° Southwest 416 479 36,000  Level Washington Center
Fri 01:08:11 PM 38.7311 -77.3828 221° Southwest 416 479 36,000  Level Washington Center
Fri 01:09:12 PM 38.6422 -77.4789 220° Southwest 416 479 36,000  Level Washington Center
Fri 01:10:13 PM 38.5550 -77.5750 221° Southwest 416 479 36,000  Level Washington Center
Fri 01:11:11 PM 38.4639 -77.6731 220° Southwest 421 484 36,000  Level Washington Center
Fri 01:12:12 PM 38.3725 -77.7686 219° Southwest 421 484 36,000  Level Washington Center
Fri 01:13:13 PM 38.2853 -77.8667 221° Southwest 421 484 36,000  Level Washington Center
Fri 01:14:11 PM 38.1958 -77.9617 220° Southwest 421 484 36,000  Level Washington Center
Fri 01:15:12 PM 38.1103 -78.0619 223° Southwest 421 484 36,000  Level Washington Center
Fri 01:16:12 PM 38.0228 -78.1592 221° Southwest 421 484 36,000  Level Washington Center
Fri 01:17:10 PM 37.9414 -78.2539 223° Southwest 410 472 36,000  Level Washington Center
Fri 01:18:11 PM 37.8536 -78.3506 221° Southwest 415 478 36,000  Level Washington Center
Fri 01:19:11 PM 37.7681 -78.4447 221° Southwest 415 478 36,000  Level Washington Center
Fri 01:20:12 PM 37.6739 -78.5489 221° Southwest 420 483 36,000  Level Washington Center
Fri 01:21:12 PM 37.5903 -78.6397 221° Southwest 420 483 36,000 -153 Level Washington Center
Fri 01:22:10 PM 37.5044 -78.7333 221° Southwest 420 483 35,700 -655 Descending Washington Center
Fri 01:23:11 PM 37.4206 -78.8214 220° Southwest 414 476 34,700 -836 Descending Washington Center
Fri 01:24:12 PM 37.3389 -78.9147 222° Southwest 409 471 34,000 -590 Descending Washington Center
Fri 01:25:13 PM 37.2658 -78.9922 220° Southwest 397 457 33,500 -857 Descending Washington Center
Fri 01:26:11 PM 37.1817 -79.0825 221° Southwest 397 457 32,300 -756 Descending Washington Center
Fri 01:27:12 PM 37.0956 -79.1747 221° Southwest 397 457 32,000 -149 Descending Washington Center
Fri 01:28:12 PM 37.0072 -79.2669 220° Southwest 402 463 32,000  Level Washington Center
Fri 01:29:12 PM 36.9231 -79.3617 222° Southwest 402 463 32,000  Level Washington Center
Fri 01:30:13 PM 36.8258 -79.4658 221° Southwest 412 474 32,000  Level Washington Center
Fri 01:31:13 PM 36.7414 -79.5603 222° Southwest 417 480 32,000 -203 Level Washington Center
Fri 01:32:11 PM 36.6528 -79.6489 219° Southwest 417 480 31,600 -1,932 Descending Washington Center
Fri 01:33:11 PM 36.5661 -79.7428 221° Southwest 417 480 28,200 -3,419 Descending Washington Center
Fri 01:33:37 PM 36.5367 -79.7703 217° Southwest 423 487 26,700 -3,488 Descending Atlanta Center
Fri 01:34:37 PM 36.4442 -79.8681 220° Southwest 413 475 23,200 -2,350 Descending Atlanta Center
Fri 01:35:37 PM 36.3597 -79.9603 221° Southwest 419 482 22,000 -600 Descending Atlanta Center
Fri 01:36:37 PM 36.2706 -80.0419 216° Southwest 414 476 22,000 -500 Level Atlanta Center
Fri 01:37:37 PM 36.1731 -80.1239 214° Southwest 398 458 21,000 -1,600 Descending Atlanta Center
Fri 01:38:37 PM 36.0881 -80.2000 216° Southwest 392 451 18,800 -1,950 Descending Atlanta Center
Fri 01:39:37 PM 36.0006 -80.2733 214° Southwest 392 451 17,100 -2,100 Descending Atlanta Center
Fri 01:40:37 PM 35.9172 -80.3464 215° Southwest 387 445 14,600 -2,050 Descending Atlanta Center
Fri 01:41:37 PM 35.8400 -80.4142 215° Southwest 365 420 13,000 -879 Descending Atlanta Center
Fri 01:42:33 PM 35.7769 -80.4681 215° Southwest 303 349 12,900  Descending Atlanta Center
Fri 01:43:34 PM 35.7036 -80.5300 214° Southwest 301 346 13,000 49 Climbing Atlanta Center
Fri 01:44:35 PM 35.6322 -80.5894 214° Southwest 303 349 13,000 -244 Level Atlanta Center
Fri 01:45:37 PM 35.5669 -80.6431 214° Southwest 309 356 12,500 -738 Descending Atlanta Center
Fri 01:46:37 PM 35.4975 -80.6997 214° Southwest 309 356 11,500 -1,050 Descending Atlanta Center
Fri 01:47:37 PM 35.4322 -80.7533 213° Southwest 293 337 10,400 -732 Descending Atlanta Center
Fri 01:48:00 PM 35.3782 -80.7944 213° Southwest  Level FlightAware Approximate
Fri 01:48:40 PM 35.3692 -80.8092 216° Southwest 238 274 10,000  Level Atlanta Center
Fri 01:49:35 PM 35.3136 -80.8419 206° Southwest 239 275 10,000 -469 Level Atlanta Center
Fri 01:50:48 PM 35.2383 -80.8347 176° South 230 265 9,000 -492 Descending Atlanta Center
Fri 01:51:37 PM 35.1839 -80.8317 177° South 224 258 9,000 -362 Level Atlanta Center
Fri 01:52:44 PM 35.1150 -80.8269 177° South 227 261 8,300 -683 Descending Atlanta Center
Fri 01:53:40 PM 35.0606 -80.8214 175° South 207 238 7,600 -836 Descending Atlanta Center
Fri 01:54:46 PM 34.9894 -80.8164 177° South 222 255 6,600 -885 Descending Atlanta Center
Fri 01:55:42 PM 34.9350 -80.8108 175° South 211 243 5,800 -1,282 Descending Atlanta Center
Fri 01:56:43 PM 34.8744 -80.8083 178° South 217 250 4,100 -934 Descending Atlanta Center
Fri 01:57:44 PM 34.8467 -80.8625 238° Southwest 245 282 3,900 -47 Descending Atlanta Center
Fri 01:58:51 PM 34.8961 -80.9139 320° Northwest 217 250 4,000  Climbing Atlanta Center
Fri 01:59:51 PM 34.9567 -80.9167 358° North 214 246 3,900 -50 Descending Atlanta Center
Fri 02:00:52 PM 35.0131 -80.9244 354° North 196 226 3,900 -52 Level Atlanta Center
Fri 02:01:47 PM 35.0592 -80.9253 359° North 179 206 3,800 -109 Descending Atlanta Center

Login

Don't have an account? Register now (free) for customized features, flight alerts, and more!